Time;durP1;ratioP1;P1;durP2;ratioP2;P2;SDS_P1;SDS_P2;PMS_P1;PMS_P2;Temp;Humidity;BMP_temperature;BMP_pressure;BME280_temperature;BME280_humidity;BME280_pressure;Samples;Min_cycle;Max_cycle;Signal;HPM_P1;HPM_P2
2021/06/21 00:00:52;;;;;;;9.05;2.25;;;18.50;99.90;;;;;;5018268;28;20050;-93
2021/06/21 00:03:18;;;;;;;12.40;2.42;;;18.50;99.90;;;;;;5038857;28;20053;-93
2021/06/21 00:05:45;;;;;;;10.35;2.38;;;18.50;99.90;;;;;;5030119;28;20045;-94
2021/06/21 00:08:12;;;;;;;8.18;2.28;;;18.50;99.90;;;;;;5016118;28;20050;-92
2021/06/21 00:10:39;;;;;;;10.60;2.63;;;18.60;99.90;;;;;;5016029;28;20486;-93
2021/06/21 00:13:05;;;;;;;5.97;2.72;;;18.60;99.90;;;;;;5017760;28;20059;-91
2021/06/21 00:15:32;;;;;;;5.57;2.30;;;18.60;99.90;;;;;;5015939;28;20064;-92
2021/06/21 00:17:59;;;;;;;8.32;2.42;;;18.60;99.90;;;;;;5016304;28;20050;-93
2021/06/21 00:20:26;;;;;;;8.38;2.78;;;18.60;99.90;;;;;;5015881;28;20136;-92
2021/06/21 00:22:56;;;;;;;5.28;2.17;;;18.60;99.90;;;;;;5015935;28;20073;-93
2021/06/21 00:25:24;;;;;;;5.45;1.90;;;18.60;99.90;;;;;;5015651;28;20057;-92
2021/06/21 00:27:51;;;;;;;3.88;2.13;;;18.60;99.90;;;;;;5015929;28;20417;-93
2021/06/21 00:30:19;;;;;;;3.90;1.70;;;18.60;99.90;;;;;;5022075;28;20121;-93
2021/06/21 00:32:47;;;;;;;3.38;1.90;;;18.50;99.90;;;;;;5028197;28;20454;-92
2021/06/21 00:35:16;;;;;;;3.08;1.63;;;18.50;99.90;;;;;;5021447;28;20141;-92
2021/06/21 00:37:44;;;;;;;5.40;1.80;;;18.40;99.90;;;;;;5015290;28;20128;-91
2021/06/21 00:40:11;;;;;;;5.47;2.20;;;18.30;99.90;;;;;;5015782;28;20410;-92
2021/06/21 00:42:42;;;;;;;5.50;1.90;;;18.20;99.90;;;;;;5016072;28;20570;-94
2021/06/21 00:45:10;;;;;;;6.13;2.25;;;18.20;99.90;;;;;;5019378;28;20045;-93
2021/06/21 00:47:37;;;;;;;4.07;2.65;;;18.10;99.90;;;;;;5019740;28;20072;-95
2021/06/21 00:50:05;;;;;;;9.63;3.25;;;18.10;99.90;;;;;;5019081;28;20135;-94
2021/06/21 00:52:32;;;;;;;5.47;3.17;;;18.10;99.90;;;;;;5019115;28;20485;-91
2021/06/21 00:55:00;;;;;;;9.10;3.30;;;18.10;99.90;;;;;;5018862;28;20053;-92
2021/06/21 00:57:32;;;;;;;7.03;3.17;;;18.10;99.90;;;;;;5018907;28;20137;-93
2021/06/21 01:00:03;;;;;;;11.88;3.88;;;18.10;99.90;;;;;;5019137;28;20109;-92
2021/06/21 01:02:30;;;;;;;7.05;3.40;;;18.20;99.90;;;;;;5018859;28;20056;-94
2021/06/21 01:04:57;;;;;;;6.78;3.05;;;18.20;99.90;;;;;;5025114;28;20102;-93
2021/06/21 01:07:24;;;;;;;3.28;2.60;;;18.20;99.90;;;;;;5034593;28;20079;-93
2021/06/21 01:09:53;;;;;;;5.78;3.15;;;18.20;99.90;;;;;;5035596;28;20073;-93
2021/06/21 01:12:33;;;;;;;10.45;3.38;;;18.30;99.90;;;;;;5035459;28;20057;-92
2021/06/21 01:15:05;;;;;;;6.60;3.75;;;18.30;99.90;;;;;;5018497;28;20100;-91
2021/06/21 01:17:46;;;;;;;9.95;3.47;;;18.30;99.90;;;;;;5018773;28;20117;-91
2021/06/21 01:20:50;;;;;;;7.45;3.60;;;18.40;99.90;;;;;;5019625;28;20144;-92
2021/06/21 01:23:36;;;;;;;;;;;18.40;99.90;;;;;;5041517;28;20037;-92
2021/06/21 01:26:24;;;;;;;4.22;2.40;;;18.30;99.90;;;;;;5045221;28;19959;-92
2021/06/21 01:29:22;;;;;;;2.55;2.30;;;18.40;99.90;;;;;;5018516;28;20136;-91
2021/06/21 01:32:07;;;;;;;3.58;1.88;;;18.40;99.90;;;;;;5018195;28;20534;-91
2021/06/21 01:34:37;;;;;;;3.58;2.30;;;18.50;99.90;;;;;;5018168;28;20123;-92
2021/06/21 01:37:05;;;;;;;6.35;2.47;;;18.50;99.90;;;;;;5018429;28;20132;-90
2021/06/21 01:39:35;;;;;;;5.93;2.78;;;18.50;99.90;;;;;;5018415;28;20049;-89
2021/06/21 01:42:06;;;;;;;5.53;2.80;;;18.50;99.90;;;;;;5017914;28;20052;-91
2021/06/21 01:44:38;;;;;;;10.38;2.95;;;18.50;99.90;;;;;;5018091;28;20042;-91
2021/06/21 01:47:06;;;;;;;4.68;2.60;;;18.50;99.90;;;;;;5017892;28;20137;-91
2021/06/21 01:49:37;;;;;;;8.98;3.15;;;18.50;99.90;;;;;;5017207;28;20144;-92
2021/06/21 01:52:07;;;;;;;9.85;3.92;;;18.40;99.90;;;;;;5018008;28;20140;-92
2021/06/21 01:54:37;;;;;;;4.05;2.90;;;18.20;99.90;;;;;;5016651;28;20057;-92
2021/06/21 01:57:04;;;;;;;5.03;2.90;;;18.10;99.90;;;;;;5017829;28;20156;-90
2021/06/21 01:59:31;;;;;;;8.57;2.47;;;18.10;99.90;;;;;;5017552;28;20132;-91
2021/06/21 02:02:00;;;;;;;2.60;2.38;;;18.10;99.90;;;;;;5017971;28;20119;-91
2021/06/21 02:04:30;;;;;;;4.47;2.88;;;18.10;99.90;;;;;;5017944;28;20136;-90
2021/06/21 02:07:00;;;;;;;5.38;2.20;;;18.20;99.90;;;;;;5017937;28;20471;-91
2021/06/21 02:09:28;;;;;;;5.47;2.53;;;18.20;99.90;;;;;;5017719;28;20057;-91
2021/06/21 02:11:55;;;;;;;3.28;1.90;;;18.20;99.90;;;;;;5018183;28;20065;-91
2021/06/21 02:14:28;;;;;;;3.33;1.40;;;18.30;99.90;;;;;;5017553;28;20075;-90
2021/06/21 02:16:57;;;;;;;4.75;1.98;;;18.30;99.90;;;;;;5017535;28;20144;-90
2021/06/21 02:19:26;;;;;;;5.60;1.80;;;18.40;99.90;;;;;;5017795;28;20143;-91
2021/06/21 02:21:53;;;;;;;2.45;1.40;;;18.40;99.90;;;;;;5017576;28;20053;-90
2021/06/21 02:24:21;;;;;;;3.78;1.48;;;18.40;99.90;;;;;;5017547;28;20051;-91
2021/06/21 02:26:49;;;;;;;2.85;1.48;;;18.40;99.90;;;;;;5017525;28;20144;-90
2021/06/21 02:29:20;;;;;;;1.80;1.70;;;18.30;99.90;;;;;;5017455;28;20132;-90
2021/06/21 02:31:48;;;;;;;7.43;2.17;;;18.30;99.90;;;;;;5017489;28;20077;-90
2021/06/21 02:34:15;;;;;;;5.75;2.85;;;18.30;99.90;;;;;;5017325;28;20046;-90
2021/06/21 02:36:43;;;;;;;6.38;2.63;;;18.40;99.90;;;;;;5017526;28;20077;-91
2021/06/21 02:39:10;;;;;;;8.00;3.17;;;18.40;99.90;;;;;;5017922;28;20136;-91
2021/06/21 02:41:37;;;;;;;8.63;4.30;;;18.40;99.90;;;;;;5028026;28;20069;-90
2021/06/21 02:44:05;;;;;;;5.60;3.70;;;18.30;99.90;;;;;;5040546;28;20057;-92
2021/06/21 02:46:32;;;;;;;6.13;3.90;;;18.40;99.90;;;;;;5017522;28;20041;-91
2021/06/21 02:48:59;;;;;;;6.60;4.25;;;18.40;99.90;;;;;;5016795;28;20461;-91
2021/06/21 02:51:40;;;;;;;6.63;3.88;;;18.40;99.90;;;;;;5017029;28;20058;-90
2021/06/21 02:54:16;;;;;;;4.68;4.20;;;18.30;99.90;;;;;;5017048;28;20055;-87
2021/06/21 02:57:15;;;;;;;6.95;5.20;;;18.30;99.90;;;;;;5016939;28;20049;-89
2021/06/21 02:59:46;;;;;;;10.02;5.47;;;18.30;99.90;;;;;;5017001;28;20542;-89
2021/06/21 03:02:15;;;;;;;9.20;5.60;;;18.30;99.90;;;;;;5016791;28;20508;-90
2021/06/21 03:04:44;;;;;;;7.30;6.50;;;18.30;99.90;;;;;;5017007;28;20061;-89
2021/06/21 03:07:15;;;;;;;11.95;7.13;;;18.20;99.90;;;;;;5016559;28;20132;-90
2021/06/21 03:09:45;;;;;;;9.30;7.53;;;18.20;99.90;;;;;;5016423;28;20049;-90
2021/06/21 03:12:20;;;;;;;7.45;6.50;;;18.20;99.90;;;;;;5016869;28;20128;-91
2021/06/21 03:14:48;;;;;;;7.53;6.45;;;18.10;99.90;;;;;;5016687;28;20383;-90
2021/06/21 03:17:16;;;;;;;7.07;6.45;;;18.10;99.90;;;;;;5016459;28;20061;-90
2021/06/21 03:19:43;;;;;;;7.97;6.55;;;18.10;99.90;;;;;;5016327;28;20413;-90
2021/06/21 03:22:10;;;;;;;10.52;6.97;;;18.00;99.90;;;;;;5016418;28;20049;-89
2021/06/21 03:24:37;;;;;;;9.30;6.20;;;18.00;99.90;;;;;;5016458;28;20045;-90
2021/06/21 03:27:05;;;;;;;7.40;6.10;;;18.00;99.90;;;;;;5019383;28;20116;-89
2021/06/21 03:29:34;;;;;;;15.20;6.22;;;17.90;99.90;;;;;;5029000;28;20113;-90
2021/06/21 03:32:29;;;;;;;7.85;5.65;;;17.80;99.90;;;;;;5022937;28;20054;-91
2021/06/21 03:34:58;;;;;;;4.03;3.63;;;17.70;99.90;;;;;;5001758;28;20050;-89
2021/06/21 03:37:25;;;;;;;5.95;4.32;;;17.70;99.90;;;;;;5016237;28;20143;-90
2021/06/21 03:39:52;;;;;;;5.90;4.60;;;17.50;99.90;;;;;;5016428;28;20391;-91
2021/06/21 03:42:19;;;;;;;8.05;4.90;;;17.50;99.90;;;;;;5017621;28;20076;-91
2021/06/21 03:44:46;;;;;;;12.88;8.15;;;17.50;99.90;;;;;;5016353;28;20136;-91
2021/06/21 03:47:16;;;;;;;12.18;7.63;;;17.40;99.90;;;;;;5016303;28;20057;-90
2021/06/21 03:49:45;;;;;;;22.38;9.93;;;17.50;99.90;;;;;;5015985;28;20566;-90
2021/06/21 03:52:12;;;;;;;13.32;9.38;;;17.50;99.90;;;;;;5016427;28;20050;-90
2021/06/21 03:54:39;;;;;;;16.75;9.90;;;17.50;99.90;;;;;;5015894;28;20107;-89
2021/06/21 03:57:06;;;;;;;13.98;10.07;;;17.60;99.90;;;;;;5016319;28;20054;-90
2021/06/21 03:59:34;;;;;;;15.60;11.60;;;17.60;99.90;;;;;;5016884;28;20060;-90
2021/06/21 04:02:01;;;;;;;13.98;9.95;;;17.80;99.90;;;;;;5034462;28;20061;-90
2021/06/21 04:04:28;;;;;;;17.30;10.60;;;17.90;99.90;;;;;;5034570;28;20041;-89
2021/06/21 04:06:55;;;;;;;22.08;12.38;;;17.90;99.90;;;;;;5015967;28;20045;-90
2021/06/21 04:09:21;;;;;;;22.23;12.70;;;17.90;99.90;;;;;;5016186;28;20141;-90
2021/06/21 04:11:49;;;;;;;23.88;10.13;;;17.90;99.90;;;;;;5016223;28;20124;-91
2021/06/21 04:14:16;;;;;;;7.97;5.47;;;17.80;99.90;;;;;;5015990;28;20545;-89
2021/06/21 04:16:43;;;;;;;4.75;3.38;;;17.90;99.90;;;;;;5015608;28;20054;-91
2021/06/21 04:19:10;;;;;;;5.80;3.80;;;17.90;99.90;;;;;;5018519;28;20060;-89
2021/06/21 04:21:36;;;;;;;5.68;3.78;;;17.90;99.90;;;;;;5019574;28;20053;-87
2021/06/21 04:24:03;;;;;;;5.53;3.88;;;18.00;99.90;;;;;;5019658;28;20041;-88
2021/06/21 04:26:30;;;;;;;3.97;3.60;;;18.00;99.90;;;;;;5019079;28;20049;-89
2021/06/21 04:28:57;;;;;;;8.35;3.30;;;18.10;99.90;;;;;;5019352;28;20060;-89
2021/06/21 04:31:43;;;;;;;3.90;2.58;;;18.20;99.90;;;;;;5022166;28;20045;-87
2021/06/21 04:34:11;;;;;;;4.43;2.40;;;18.20;99.90;;;;;;5019560;28;20054;-87
2021/06/21 04:36:37;;;;;;;5.72;2.30;;;18.20;99.90;;;;;;5018308;28;20060;-86
2021/06/21 04:39:04;;;;;;;3.30;2.05;;;18.40;99.90;;;;;;5018840;28;20060;-85
2021/06/21 04:41:31;;;;;;;2.45;2.13;;;18.40;99.90;;;;;;5019107;28;20064;-87
2021/06/21 04:43:58;;;;;;;3.90;2.28;;;18.50;99.90;;;;;;5018940;28;20045;-87
2021/06/21 04:46:25;;;;;;;5.63;2.53;;;18.60;99.90;;;;;;5018644;28;20057;-87
2021/06/21 04:48:53;;;;;;;8.45;2.42;;;18.70;99.90;;;;;;5018613;28;20088;-85
2021/06/21 04:51:20;;;;;;;5.18;1.77;;;18.80;99.90;;;;;;5018298;28;20055;-87
2021/06/21 04:53:48;;;;;;;2.00;1.40;;;19.30;99.90;;;;;;5018324;28;20056;-86
2021/06/21 04:56:15;;;;;;;3.85;1.48;;;20.10;99.90;;;;;;5035463;28;20557;-86
2021/06/21 04:58:44;;;;;;;3.35;1.52;;;20.60;99.90;;;;;;5018129;28;20045;-85
2021/06/21 05:01:11;;;;;;;3.20;1.35;;;20.90;99.90;;;;;;5018165;28;20056;-85
2021/06/21 05:03:38;;;;;;;3.95;1.75;;;21.10;99.90;;;;;;5017629;28;20046;-84
2021/06/21 05:06:06;;;;;;;4.03;1.70;;;21.20;99.90;;;;;;5017564;28;20059;-84
2021/06/21 05:08:34;;;;;;;6.78;1.52;;;21.50;99.90;;;;;;5017449;28;20051;-84
2021/06/21 05:11:01;;;;;;;6.40;1.52;;;21.70;99.90;;;;;;5034912;28;20512;-85
2021/06/21 05:13:27;;;;;;;5.45;1.20;;;21.70;99.90;;;;;;5016424;28;20050;-84
2021/06/21 05:15:54;;;;;;;4.90;1.60;;;21.80;99.90;;;;;;5017749;28;20155;-85
2021/06/21 05:18:21;;;;;;;3.85;1.63;;;21.90;99.90;;;;;;5034895;28;20053;-85
2021/06/21 05:20:48;;;;;;;4.43;1.63;;;22.20;99.90;;;;;;5021803;28;20053;-83
2021/06/21 05:23:15;;;;;;;6.43;2.05;;;23.10;99.90;;;;;;5037685;28;20054;-83
2021/06/21 05:25:42;;;;;;;5.70;2.08;;;23.80;99.90;;;;;;5017091;28;20418;-84
2021/06/21 05:28:08;;;;;;;4.65;1.75;;;24.90;99.90;;;;;;5017229;28;20041;-84
2021/06/21 05:30:35;;;;;;;7.72;1.95;;;25.90;99.90;;;;;;5016037;28;20053;-82
2021/06/21 05:33:02;;;;;;;2.40;1.60;;;26.60;99.90;;;;;;5034752;28;20128;-83
2021/06/21 05:35:29;;;;;;;6.78;1.98;;;26.90;99.90;;;;;;5016554;28;20132;-83
2021/06/21 05:37:56;;;;;;;6.28;2.20;;;26.60;99.90;;;;;;5016978;28;20049;-84
2021/06/21 05:40:23;;;;;;;5.57;2.25;;;27.00;99.90;;;;;;5016864;28;20049;-83
2021/06/21 05:42:54;;;;;;;7.03;1.95;;;26.60;99.90;;;;;;5017657;28;20104;-83
2021/06/21 05:45:21;;;;;;;8.65;2.47;;;26.90;99.90;;;;;;5016586;28;20056;-83
2021/06/21 05:47:49;;;;;;;8.48;2.60;;;26.70;99.90;;;;;;5016955;28;20045;-87
2021/06/21 05:50:15;;;;;;;9.02;2.70;;;26.20;99.90;;;;;;5034465;28;20510;-83
2021/06/21 05:52:42;;;;;;;8.63;2.35;;;24.70;99.90;;;;;;5017039;28;20409;-83
2021/06/21 05:55:09;;;;;;;6.70;2.35;;;24.00;99.90;;;;;;5016295;28;20049;-82
2021/06/21 05:57:36;;;;;;;9.48;2.80;;;23.90;99.90;;;;;;5016720;28;20049;-82
2021/06/21 06:00:05;;;;;;;8.13;2.58;;;23.80;99.90;;;;;;5016655;28;20045;-82
2021/06/21 06:02:42;;;;;;;6.95;2.70;;;23.80;99.90;;;;;;5034072;28;20107;-83
2021/06/21 06:05:09;;;;;;;11.95;2.85;;;23.30;99.90;;;;;;5016339;28;20099;-83
2021/06/21 06:07:36;;;;;;;9.00;2.13;;;23.40;99.90;;;;;;5016225;28;20049;-82
2021/06/21 06:10:04;;;;;;;7.38;3.13;;;23.60;99.90;;;;;;5034021;28;20490;-82
2021/06/21 06:12:31;;;;;;;10.10;2.78;;;24.20;99.90;;;;;;5033822;28;20486;-82
2021/06/21 06:14:58;;;;;;;15.52;2.95;;;24.80;99.90;;;;;;5033760;28;20077;-82
2021/06/21 06:17:25;;;;;;;13.80;2.92;;;25.80;99.90;;;;;;5033577;28;20068;-83
2021/06/21 06:19:52;;;;;;;7.68;2.45;;;26.80;99.90;;;;;;5033789;28;20092;-83
2021/06/21 06:22:19;;;;;;;9.43;2.45;;;26.40;99.90;;;;;;5016121;28;20489;-83
2021/06/21 06:24:46;;;;;;;10.93;2.80;;;27.10;99.90;;;;;;5015898;28;20490;-82
2021/06/21 06:27:13;;;;;;;7.60;2.50;;;27.50;99.90;;;;;;5016104;28;20409;-82
2021/06/21 06:29:40;;;;;;;12.55;3.05;;;28.00;99.90;;;;;;5015797;28;20417;-82
2021/06/21 06:32:08;;;;;;;17.45;2.72;;;28.50;99.90;;;;;;5016095;28;20049;-83
2021/06/21 06:34:35;;;;;;;10.55;2.67;;;29.10;99.90;;;;;;5015578;28;20088;-80
2021/06/21 06:37:02;;;;;;;9.15;2.28;;;29.30;99.90;;;;;;5015818;28;20417;-81
2021/06/21 06:39:29;;;;;;;11.93;2.55;;;30.20;99.90;;;;;;5033287;28;20056;-80
2021/06/21 06:41:56;;;;;;;10.55;3.08;;;30.40;99.90;;;;;;5015817;28;20399;-80
2021/06/21 06:44:23;;;;;;;10.52;2.72;;;29.80;99.90;;;;;;5015775;28;20140;-80
2021/06/21 06:46:50;;;;;;;10.00;3.00;;;28.70;99.90;;;;;;5015259;28;20053;-80
2021/06/21 06:49:16;;;;;;;9.65;2.58;;;27.80;99.90;;;;;;5015177;28;20121;-82
2021/06/21 06:51:48;;;;;;;10.93;2.72;;;26.70;99.90;;;;;;5015348;28;20057;-82
2021/06/21 06:59:34;;;;;;;11.67;2.90;;;25.00;99.90;;;;;;5032502;28;20053;-83
2021/06/21 07:02:04;;;;;;;10.73;3.60;;;24.80;99.90;;;;;;5015308;28;20132;-82
2021/06/21 07:04:35;;;;;;;8.70;2.50;;;24.80;99.90;;;;;;5015414;28;20123;-83
2021/06/21 07:07:03;;;;;;;9.07;2.80;;;24.80;99.90;;;;;;5015046;28;20054;-83
2021/06/21 07:09:30;;;;;;;11.88;2.85;;;24.80;99.90;;;;;;5015288;28;20056;-82
2021/06/21 07:11:58;;;;;;;11.07;2.88;;;24.80;99.90;;;;;;5015203;28;20046;-81
2021/06/21 07:14:25;;;;;;;12.70;2.78;;;24.60;99.90;;;;;;5015107;28;20049;-83
2021/06/21 07:16:53;;;;;;;10.65;3.00;;;24.40;99.90;;;;;;5032453;28;20056;-82
2021/06/21 07:19:20;;;;;;;8.60;2.38;;;24.50;99.90;;;;;;5032468;28;20497;-82
2021/06/21 07:21:48;;;;;;;10.95;2.28;;;25.10;99.90;;;;;;5014877;28;20050;-83
2021/06/21 07:24:15;;;;;;;10.63;2.78;;;27.90;99.90;;;;;;5032555;28;20052;-82
2021/06/21 07:26:43;;;;;;;7.90;2.55;;;29.80;99.90;;;;;;5032090;28;20075;-81
2021/06/21 07:29:11;;;;;;;11.32;2.78;;;32.20;99.90;;;;;;5032495;28;20418;-81
2021/06/21 07:31:38;;;;;;;12.13;2.72;;;32.30;98.80;;;;;;5015017;28;20053;-82
2021/06/21 07:34:05;;;;;;;12.88;2.53;;;33.30;94.80;;;;;;5032384;28;20269;-81
2021/06/21 07:36:32;;;;;;;11.02;3.00;;;35.10;90.20;;;;;;5014574;28;20049;-81
2021/06/21 07:38:59;;;;;;;15.00;3.25;;;35.50;79.40;;;;;;5014448;28;20506;-80
2021/06/21 07:41:26;;;;;;;13.38;3.20;;;35.20;78.50;;;;;;5014503;28;20491;-81
2021/06/21 07:43:53;;;;;;;9.18;2.10;;;33.40;82.10;;;;;;5014746;28;20067;-81
2021/06/21 07:46:20;;;;;;;8.65;2.58;;;32.40;84.40;;;;;;5014471;28;20054;-80
2021/06/21 07:48:47;;;;;;;7.97;2.70;;;31.70;85.80;;;;;;5014641;28;20124;-84
2021/06/21 07:51:14;;;;;;;9.40;2.53;;;32.00;88.20;;;;;;5014492;28;20049;-81
2021/06/21 07:53:43;;;;;;;11.52;2.55;;;33.60;85.50;;;;;;5033955;28;20056;-83
2021/06/21 07:56:13;;;;;;;8.90;2.08;;;33.40;81.00;;;;;;5018478;28;20041;-81
2021/06/21 07:58:41;;;;;;;14.02;4.82;;;32.60;82.00;;;;;;5018634;28;20049;-83
2021/06/21 08:01:12;;;;;;;13.07;6.50;;;32.00;85.10;;;;;;5035971;28;20045;-83
2021/06/21 08:03:44;;;;;;;26.85;13.82;;;32.30;85.80;;;;;;5018636;28;20100;-81
2021/06/21 08:06:11;;;;;;;37.90;22.20;;;33.50;83.10;;;;;;5018351;28;20136;-81
2021/06/21 08:08:39;;;;;;;15.27;7.60;;;33.90;81.20;;;;;;5018353;28;20049;-81
2021/06/21 08:11:06;;;;;;;19.88;6.72;;;35.10;79.40;;;;;;5018319;28;20059;-80
2021/06/21 08:13:33;;;;;;;9.82;4.70;;;35.20;77.60;;;;;;5035718;28;20049;-81
2021/06/21 08:16:00;;;;;;;14.82;3.08;;;35.90;73.70;;;;;;5018221;28;20053;-81
2021/06/21 08:18:28;;;;;;;12.05;3.35;;;35.80;72.50;;;;;;5018176;28;20045;-80
2021/06/21 08:20:55;;;;;;;9.25;3.05;;;35.50;72.00;;;;;;5035649;28;20053;-82
2021/06/21 08:23:22;;;;;;;9.77;2.92;;;34.60;72.50;;;;;;5018205;28;20086;-80
2021/06/21 08:25:49;;;;;;;9.65;3.08;;;35.30;72.70;;;;;;5018196;28;20474;-82
2021/06/21 08:28:16;;;;;;;11.50;2.60;;;36.00;71.90;;;;;;5018170;28;20144;-80
2021/06/21 08:30:46;;;;;;;11.45;3.03;;;34.80;71.80;;;;;;5018035;28;20050;-80
2021/06/21 08:33:13;;;;;;;13.20;3.28;;;34.00;73.50;;;;;;5018163;28;20050;-82
2021/06/21 08:35:40;;;;;;;12.80;3.22;;;33.00;75.20;;;;;;5035550;28;20041;-81
2021/06/21 08:38:07;;;;;;;12.40;3.00;;;31.20;78.50;;;;;;5018185;28;20052;-81
2021/06/21 08:40:34;;;;;;;6.80;2.42;;;29.80;85.00;;;;;;5018115;28;20049;-80
2021/06/21 08:43:02;;;;;;;11.20;2.42;;;29.00;88.70;;;;;;5018199;28;20063;-82
2021/06/21 08:45:31;;;;;;;12.85;2.95;;;30.70;87.10;;;;;;5017628;28;20042;-82
2021/06/21 08:47:58;;;;;;;8.68;2.53;;;32.10;83.20;;;;;;5017663;28;20049;-81
2021/06/21 08:50:26;;;;;;;7.75;2.30;;;33.20;80.40;;;;;;5017775;28;20148;-80
2021/06/21 08:52:53;;;;;;;9.02;2.28;;;35.20;76.40;;;;;;5017957;28;20045;-81
2021/06/21 08:55:20;;;;;;;8.63;1.90;;;35.50;72.50;;;;;;5001351;28;20060;-82
2021/06/21 08:57:48;;;;;;;9.10;1.90;;;35.90;69.70;;;;;;5017798;28;20093;-81
2021/06/21 09:00:17;;;;;;;11.45;2.38;;;35.00;71.90;;;;;;5017555;28;20049;-80
2021/06/21 09:02:47;;;;;;;6.70;2.13;;;35.20;69.70;;;;;;5017460;28;20057;-80
2021/06/21 09:05:15;;;;;;;6.80;2.40;;;35.90;70.40;;;;;;5034458;28;20123;-80
2021/06/21 09:07:42;;;;;;;10.50;2.53;;;36.30;67.60;;;;;;5034801;28;20065;-81
2021/06/21 09:10:26;;;;;;;17.77;5.43;;;37.10;66.80;;;;;;5034925;28;20055;-81
2021/06/21 09:13:17;;;;;;;12.23;3.17;;;37.80;63.10;;;;;;5017070;28;20053;-82
2021/06/21 09:15:48;;;;;;;6.45;1.80;;;37.40;61.50;;;;;;5007872;28;20099;-81
2021/06/21 09:18:35;;;;;;;8.55;2.10;;;37.60;61.40;;;;;;5034834;28;20061;-82
2021/06/21 09:21:29;;;;;;;10.13;3.08;;;37.90;61.60;;;;;;5036240;28;20410;-87
2021/06/21 09:24:15;;;;;;;;;;;36.10;62.30;;;;;;5019080;28;20057;-81
2021/06/21 09:26:44;;;;;;;5.60;1.70;;;37.70;62.60;;;;;;5034422;28;19968;-81
2021/06/21 09:29:10;;;;;;;8.05;1.83;;;38.90;60.40;;;;;;5034341;28;20073;-80
2021/06/21 09:31:52;;;;;;;6.85;1.60;;;39.10;58.30;;;;;;5034190;28;20069;-82
2021/06/21 09:34:22;;;;;;;7.22;1.80;;;37.90;62.00;;;;;;5016769;28;20049;-81
2021/06/21 09:36:49;;;;;;;9.82;1.80;;;37.40;60.20;;;;;;5016820;28;20144;-80
2021/06/21 09:39:32;;;;;;;8.60;2.42;;;37.40;61.20;;;;;;5034159;28;20049;-80
2021/06/21 09:42:20;;;;;;;7.25;2.20;;;37.50;60.90;;;;;;5016932;28;20481;-81
2021/06/21 09:44:55;;;;;;;4.50;1.67;;;35.10;62.40;;;;;;5016709;28;20107;-80
2021/06/21 09:47:37;;;;;;;9.52;1.70;;;32.10;68.80;;;;;;5016470;28;20522;-80
2021/06/21 09:50:22;;;;;;;4.50;1.27;;;32.70;70.50;;;;;;5016374;28;20144;-79
2021/06/21 09:52:52;;;;;;;6.28;1.23;;;34.20;67.20;;;;;;5034307;28;20068;-80
2021/06/21 09:55:28;;;;;;;5.22;1.52;;;35.10;66.40;;;;;;5033736;28;20479;-80
2021/06/21 09:58:14;;;;;;;5.72;1.33;;;36.20;63.70;;;;;;5016669;28;20053;-81
2021/06/21 10:00:46;;;;;;;5.82;1.13;;;36.70;62.10;;;;;;5016267;28;20111;-83
2021/06/21 10:03:14;;;;;;;5.38;1.40;;;37.20;61.20;;;;;;5016293;28;20068;-81
2021/06/21 10:05:44;;;;;;;9.13;1.60;;;36.10;59.60;;;;;;5016269;28;20097;-80
2021/06/21 10:08:14;;;;;;;9.02;1.00;;;34.60;61.80;;;;;;5016314;28;20513;-81
2021/06/21 10:10:42;;;;;;;6.25;1.17;;;35.40;63.20;;;;;;5016344;28;20055;-80
2021/06/21 10:13:10;;;;;;;8.27;1.20;;;35.00;62.30;;;;;;5015909;28;20045;-80
2021/06/21 10:15:37;;;;;;;4.70;1.08;;;34.50;64.10;;;;;;5015292;28;20057;-82
2021/06/21 10:18:06;;;;;;;8.05;1.20;;;35.40;63.70;;;;;;5016100;28;20049;-81
2021/06/21 10:20:33;;;;;;;7.03;1.13;;;35.40;62.90;;;;;;5016068;28;20055;-79
2021/06/21 10:23:04;;;;;;;5.13;1.25;;;35.30;62.90;;;;;;5033412;28;20045;-80
2021/06/21 10:25:32;;;;;;;2.78;0.70;;;36.80;60.90;;;;;;5015599;28;20052;-81
2021/06/21 10:28:00;;;;;;;5.05;1.10;;;36.00;61.30;;;;;;5014609;28;20050;-84
2021/06/21 10:30:28;;;;;;;10.70;1.30;;;34.90;62.00;;;;;;5015899;28;20510;-80
2021/06/21 10:32:55;;;;;;;3.63;1.15;;;34.20;62.20;;;;;;5015980;28;20053;-83
2021/06/21 10:35:29;;;;;;;8.63;1.25;;;35.50;62.00;;;;;;5015367;28;20072;-81
2021/06/21 10:38:03;;;;;;;11.52;1.60;;;36.20;62.80;;;;;;5016064;28;20286;-81
2021/06/21 10:40:31;;;;;;;4.60;1.60;;;36.30;62.40;;;;;;5017262;28;20053;-82
2021/06/21 10:42:58;;;;;;;6.50;1.27;;;36.60;60.20;;;;;;5015469;28;20409;-83
2021/06/21 10:45:27;;;;;;;2.03;0.73;;;37.70;59.50;;;;;;5032876;28;20045;-80
2021/06/21 10:48:10;;;;;;;4.32;1.27;;;37.80;57.00;;;;;;5015331;28;20128;-79
2021/06/21 10:50:49;;;;;;;6.97;1.00;;;37.70;58.00;;;;;;5015409;28;20506;-80
2021/06/21 10:53:16;;;;;;;7.28;1.20;;;38.00;57.20;;;;;;5015733;28;20053;-81
2021/06/21 10:55:50;;;;;;;11.55;1.20;;;37.90;57.50;;;;;;5015451;28;20051;-80
2021/06/21 10:58:20;;;;;;;;;;;37.80;58.70;;;;;;5015424;28;20064;-82
2021/06/21 11:00:49;;;;;;;6.13;0.70;;;38.50;55.30;;;;;;5015195;28;19968;-82
2021/06/21 11:03:25;;;;;;;2.92;0.70;;;38.10;55.90;;;;;;5015124;28;20052;-78
2021/06/21 11:06:05;;;;;;;3.28;1.08;;;37.30;57.10;;;;;;5015223;28;20053;-80
2021/06/21 11:08:34;;;;;;;4.20;0.98;;;36.60;58.80;;;;;;5032569;28;20049;-80
2021/06/21 11:11:34;;;;;;;5.45;0.90;;;36.80;58.00;;;;;;5015183;28;20099;-80
2021/06/21 11:14:08;;;;;;;3.60;1.20;;;37.90;57.50;;;;;;5032597;28;20490;-80
2021/06/21 11:16:35;;;;;;;3.35;1.00;;;37.20;57.10;;;;;;5032356;28;20088;-79
2021/06/21 11:19:21;;;;;;;4.45;0.80;;;36.30;56.70;;;;;;5032477;28;20414;-80
2021/06/21 11:21:53;;;;;;;4.93;1.20;;;35.30;58.90;;;;;;5032402;28;20061;-79
2021/06/21 11:24:36;;;;;;;5.17;1.07;;;34.60;60.90;;;;;;5014748;28;20573;-79
2021/06/21 11:27:11;;;;;;;4.25;1.10;;;33.60;63.60;;;;;;5014348;28;20323;-80
2021/06/21 11:29:41;;;;;;;4.45;1.10;;;33.00;63.10;;;;;;5014370;28;20083;-79
2021/06/21 11:32:09;;;;;;;4.35;0.75;;;31.80;66.30;;;;;;5014694;28;20049;-79
2021/06/21 11:34:51;;;;;;;5.57;1.02;;;31.40;65.50;;;;;;5014773;28;20132;-80
2021/06/21 11:37:46;;;;;;;3.63;1.00;;;30.80;67.50;;;;;;5014321;28;20512;-79
2021/06/21 11:42:56;;;;;;;2.65;0.88;;;31.50;67.70;;;;;;5031980;28;20072;-79
2021/06/21 11:45:54;;;;;;;3.10;1.30;;;32.50;66.40;;;;;;5015001;28;20108;-79
2021/06/21 11:48:30;;;;;;;5.03;0.80;;;32.00;64.60;;;;;;5014476;28;20103;-80
2021/06/21 11:51:00;;;;;;;1.30;0.75;;;31.50;66.40;;;;;;5014528;28;20075;-79
2021/06/21 11:53:30;;;;;;;8.48;1.40;;;30.70;69.50;;;;;;5014677;28;20533;-82
2021/06/21 11:55:57;;;;;;;3.30;0.98;;;30.40;69.90;;;;;;5014484;28;20642;-80
2021/06/21 11:58:30;;;;;;;2.78;0.82;;;30.30;71.40;;;;;;5014507;28;20045;-79
2021/06/21 12:01:13;;;;;;;7.70;1.47;;;30.60;71.40;;;;;;5032736;28;20100;-80
2021/06/21 12:03:44;;;;;;;5.88;0.98;;;30.40;70.90;;;;;;5014640;28;20050;-80
2021/06/21 12:06:19;;;;;;;5.85;1.17;;;30.80;71.30;;;;;;5031901;28;20048;-80
2021/06/21 12:08:46;;;;;;;5.15;0.82;;;30.60;69.80;;;;;;5014650;28;20115;-79
2021/06/21 12:11:25;;;;;;;4.60;1.02;;;30.10;70.40;;;;;;5012932;28;20049;-80
2021/06/21 12:13:55;;;;;;;3.30;1.10;;;29.70;71.10;;;;;;5014542;28;20056;-80
2021/06/21 12:16:22;;;;;;;5.38;1.33;;;29.40;72.90;;;;;;5014035;28;20510;-80
2021/06/21 12:18:51;;;;;;;3.47;1.08;;;28.70;73.40;;;;;;5032007;28;20053;-80
2021/06/21 12:21:32;;;;;;;4.25;1.23;;;28.30;76.90;;;;;;5031660;28;20091;-80
2021/06/21 12:24:18;;;;;;;7.40;1.30;;;28.40;78.10;;;;;;5014488;28;20128;-80
2021/06/21 12:26:46;;;;;;;4.97;1.50;;;28.40;79.90;;;;;;5014277;28;20049;-80
2021/06/21 12:29:31;;;;;;;5.72;1.50;;;28.60;77.60;;;;;;5014048;28;20136;-80
2021/06/21 12:32:08;;;;;;;7.82;1.38;;;28.80;79.60;;;;;;5014302;28;20056;-80
2021/06/21 12:34:57;;;;;;;2.83;0.98;;;28.80;77.40;;;;;;5031828;28;20045;-81
2021/06/21 12:37:33;;;;;;;4.18;1.35;;;28.80;78.10;;;;;;5031673;28;20053;-80
2021/06/21 12:40:18;;;;;;;4.65;1.10;;;28.70;77.60;;;;;;5016529;28;20455;-81
2021/06/21 12:42:46;;;;;;;4.10;1.23;;;28.50;78.80;;;;;;5018433;28;20049;-80
2021/06/21 12:45:15;;;;;;;5.65;1.38;;;28.50;79.30;;;;;;5017505;28;20053;-81
2021/06/21 12:47:44;;;;;;;6.20;1.10;;;28.70;75.70;;;;;;5035204;28;20486;-80
2021/06/21 12:50:14;;;;;;;2.97;0.80;;;28.60;77.90;;;;;;5017791;28;20129;-80
2021/06/21 12:52:44;;;;;;;5.18;0.90;;;28.50;78.10;;;;;;5017551;28;20042;-81
2021/06/21 12:55:13;;;;;;;5.75;1.23;;;28.70;79.20;;;;;;5017434;28;20056;-80
2021/06/21 12:58:00;;;;;;;3.20;1.20;;;28.60;77.80;;;;;;5017819;28;20077;-80
2021/06/21 13:00:46;;;;;;;6.07;1.70;;;28.40;78.80;;;;;;5017470;28;20490;-82
2021/06/21 13:03:22;;;;;;;6.68;1.48;;;28.10;79.60;;;;;;5017454;28;20045;-84
2021/06/21 13:05:56;;;;;;;7.30;1.25;;;27.90;78.30;;;;;;5034963;28;20049;-80
2021/06/21 13:08:37;;;;;;;1.75;0.90;;;27.50;80.50;;;;;;5017144;28;20045;-81
2021/06/21 13:11:12;;;;;;;7.53;0.90;;;27.50;79.70;;;;;;5034740;28;20140;-80